Time;durP1;ratioP1;P1;durP2;ratioP2;P2;SDS_P1;SDS_P2;PMS_P1;PMS_P2;Temp;Humidity;BMP_temperature;BMP_pressure;BME280_temperature;BME280_humidity;BME280_pressure;Samples;Min_cycle;Max_cycle;Signal;HPM_P1;HPM_P2
2020/12/07 00:02:05;;;;;;;15.68;9.52;;;5.60;99.90;;;;;;5028612;28;20044;-70
2020/12/07 00:04:31;;;;;;;14.68;8.80;;;5.60;99.90;;;;;;5031515;28;20507;-71
2020/12/07 00:06:57;;;;;;;17.08;9.98;;;5.60;99.90;;;;;;5034144;28;20431;-70
2020/12/07 00:09:24;;;;;;;14.77;9.07;;;5.60;99.90;;;;;;5033587;28;20090;-70
2020/12/07 00:11:52;;;;;;;12.95;8.23;;;5.60;99.90;;;;;;5031697;28;20032;-70
2020/12/07 00:14:20;;;;;;;12.57;7.85;;;5.60;99.90;;;;;;5031264;28;20021;-70
2020/12/07 00:16:50;;;;;;;11.50;7.00;;;5.60;99.90;;;;;;5031449;28;20033;-70
2020/12/07 00:19:16;;;;;;;10.75;6.85;;;5.50;99.90;;;;;;5027984;28;20167;-70
2020/12/07 00:21:42;;;;;;;11.35;6.95;;;5.50;99.90;;;;;;5028735;28;20113;-70
2020/12/07 00:24:08;;;;;;;10.10;6.47;;;5.50;99.90;;;;;;5014478;28;20610;-70
2020/12/07 00:26:33;;;;;;;11.15;6.80;;;5.50;99.90;;;;;;5027254;28;20057;-70
2020/12/07 00:28:59;;;;;;;10.48;6.03;;;5.50;99.90;;;;;;5029757;28;21322;-70
2020/12/07 00:31:27;;;;;;;10.38;6.60;;;5.50;99.90;;;;;;5030467;28;20051;-70
2020/12/07 00:33:58;;;;;;;10.55;6.53;;;5.40;99.90;;;;;;5026494;28;20060;-70
2020/12/07 00:36:29;;;;;;;9.57;6.35;;;5.40;99.90;;;;;;5035891;28;20030;-70
2020/12/07 00:38:55;;;;;;;12.05;6.93;;;5.40;99.90;;;;;;5016031;28;20025;-70
2020/12/07 00:41:24;;;;;;;11.23;6.90;;;5.40;99.90;;;;;;5010843;28;20040;-70
2020/12/07 00:43:50;;;;;;;9.98;6.30;;;5.40;99.90;;;;;;5027271;28;20109;-70
2020/12/07 00:46:21;;;;;;;10.70;6.43;;;5.30;99.90;;;;;;5030144;28;20147;-70
2020/12/07 00:48:46;;;;;;;9.55;5.95;;;5.20;99.90;;;;;;5024956;28;20574;-70
2020/12/07 00:51:12;;;;;;;10.20;6.25;;;5.20;99.90;;;;;;5031453;28;20047;-70
2020/12/07 00:53:38;;;;;;;9.35;6.00;;;5.20;99.90;;;;;;5046259;28;20040;-70
2020/12/07 00:56:08;;;;;;;8.60;5.30;;;5.20;99.90;;;;;;5029442;28;20033;-70
2020/12/07 00:58:34;;;;;;;10.20;6.03;;;5.20;99.90;;;;;;5029193;28;20032;-70
2020/12/07 01:00:59;;;;;;;9.25;5.82;;;5.10;99.90;;;;;;5025116;28;20087;-70
2020/12/07 01:03:25;;;;;;;8.20;5.40;;;5.10;99.90;;;;;;5027810;28;20030;-70
2020/12/07 01:05:52;;;;;;;8.10;5.63;;;5.10;99.90;;;;;;5029765;28;20037;-70
2020/12/07 01:08:18;;;;;;;8.38;5.22;;;5.10;99.90;;;;;;5026858;28;20029;-70
2020/12/07 01:10:43;;;;;;;8.88;5.13;;;5.10;99.90;;;;;;5027431;28;20033;-70
2020/12/07 01:13:09;;;;;;;10.05;6.05;;;5.10;99.90;;;;;;5027472;28;20016;-71
2020/12/07 01:15:38;;;;;;;9.27;5.80;;;5.10;99.90;;;;;;5027158;28;20029;-70
2020/12/07 01:18:06;;;;;;;8.45;5.40;;;5.20;99.90;;;;;;5027460;28;20780;-70
2020/12/07 01:20:33;;;;;;;8.55;5.25;;;5.20;99.90;;;;;;5026305;28;20025;-70
2020/12/07 01:22:58;;;;;;;8.35;5.03;;;5.10;99.90;;;;;;5034131;28;20029;-70
2020/12/07 01:25:24;;;;;;;10.85;5.72;;;5.10;99.90;;;;;;5026991;28;20028;-70
2020/12/07 01:27:54;;;;;;;10.90;6.25;;;5.10;99.90;;;;;;5024068;28;20033;-70
2020/12/07 01:30:22;;;;;;;11.77;6.57;;;5.10;99.90;;;;;;5026148;28;20498;-70
2020/12/07 01:32:50;;;;;;;11.45;6.60;;;5.10;99.90;;;;;;5029548;28;20120;-70
2020/12/07 01:35:16;;;;;;;9.27;5.57;;;5.00;99.90;;;;;;5003506;28;20027;-70
2020/12/07 01:37:44;;;;;;;10.02;5.55;;;4.90;99.90;;;;;;5031268;28;20033;-70
2020/12/07 01:40:11;;;;;;;10.85;5.90;;;5.00;99.90;;;;;;5046414;28;20029;-70
2020/12/07 01:42:37;;;;;;;9.52;5.63;;;4.90;99.90;;;;;;5031809;28;20048;-70
2020/12/07 01:45:05;;;;;;;7.88;4.88;;;4.90;99.90;;;;;;5026167;28;20038;-70
2020/12/07 01:47:31;;;;;;;8.00;4.93;;;4.90;99.90;;;;;;5026547;28;20045;-70
2020/12/07 01:49:56;;;;;;;7.80;4.70;;;5.00;99.90;;;;;;5024895;28;20029;-70
2020/12/07 01:52:25;;;;;;;8.07;5.07;;;5.00;99.90;;;;;;5031076;28;20029;-70
2020/12/07 01:54:53;;;;;;;9.40;5.78;;;5.00;99.90;;;;;;5029346;28;20021;-71
2020/12/07 01:57:18;;;;;;;9.15;5.22;;;5.00;99.90;;;;;;5027677;28;20042;-70
2020/12/07 01:59:44;;;;;;;9.82;5.15;;;5.00;99.90;;;;;;5030149;28;20085;-70
2020/12/07 02:02:10;;;;;;;8.35;4.95;;;5.00;99.90;;;;;;5024163;28;20033;-70
2020/12/07 02:04:35;;;;;;;7.13;4.30;;;5.10;99.90;;;;;;5028257;28;20470;-70
2020/12/07 02:07:03;;;;;;;8.93;5.20;;;5.00;99.90;;;;;;5025191;28;20064;-70
2020/12/07 02:09:29;;;;;;;9.27;5.05;;;5.10;99.90;;;;;;5032969;28;20025;-70
2020/12/07 02:12:00;;;;;;;8.18;5.10;;;5.10;99.90;;;;;;5026964;28;20022;-70
2020/12/07 02:14:30;;;;;;;9.00;4.68;;;5.10;99.90;;;;;;5026320;28;20145;-70
2020/12/07 02:16:55;;;;;;;8.57;5.10;;;5.10;99.90;;;;;;5028148;28;20043;-70
2020/12/07 02:19:23;;;;;;;8.80;5.07;;;5.10;99.90;;;;;;5027670;28;20033;-70
2020/12/07 02:21:49;;;;;;;8.80;4.78;;;5.10;99.90;;;;;;5029810;28;20040;-70
2020/12/07 02:24:14;;;;;;;9.07;5.15;;;5.10;99.90;;;;;;5030759;28;20025;-70
2020/12/07 02:26:45;;;;;;;9.32;4.75;;;5.10;99.90;;;;;;5030509;28;20531;-70
2020/12/07 02:29:10;;;;;;;8.30;5.03;;;5.10;99.90;;;;;;5028360;28;20060;-70
2020/12/07 02:31:38;;;;;;;8.18;4.60;;;5.10;99.90;;;;;;5026265;28;20033;-70
2020/12/07 02:34:03;;;;;;;7.93;4.07;;;5.10;99.90;;;;;;5027174;28;20021;-71
2020/12/07 02:36:29;;;;;;;7.07;4.10;;;5.00;99.90;;;;;;5026352;28;20035;-70
2020/12/07 02:38:54;;;;;;;6.95;4.43;;;5.10;99.90;;;;;;5026384;28;20478;-70
2020/12/07 02:41:22;;;;;;;6.10;3.50;;;5.10;99.90;;;;;;5030677;28;20122;-70
2020/12/07 02:43:50;;;;;;;6.63;4.10;;;5.00;99.90;;;;;;5028727;28;20038;-70
2020/12/07 02:46:16;;;;;;;6.25;3.72;;;5.00;99.90;;;;;;5025911;28;20095;-70
2020/12/07 02:48:42;;;;;;;7.13;4.18;;;5.00;99.90;;;;;;5058853;28;20045;-70
2020/12/07 02:51:07;;;;;;;6.55;4.18;;;5.00;99.90;;;;;;5025998;28;20113;-70
2020/12/07 02:53:33;;;;;;;5.85;3.60;;;5.00;99.90;;;;;;5027764;28;20044;-70
2020/12/07 02:55:58;;;;;;;7.35;4.47;;;5.00;99.90;;;;;;5027683;28;20033;-70
2020/12/07 02:58:24;;;;;;;7.82;4.30;;;5.00;99.90;;;;;;5027298;28;20030;-70
2020/12/07 03:00:50;;;;;;;6.32;3.80;;;5.00;99.90;;;;;;5027718;28;20044;-70
2020/12/07 03:03:15;;;;;;;6.57;4.00;;;5.00;99.90;;;;;;5027560;28;20600;-70
2020/12/07 03:05:43;;;;;;;6.60;4.00;;;5.00;99.90;;;;;;5029158;28;20313;-70
2020/12/07 03:08:09;;;;;;;6.22;3.90;;;5.00;99.90;;;;;;5027572;28;20033;-70
2020/12/07 03:10:38;;;;;;;6.32;4.05;;;5.00;99.90;;;;;;5025462;28;20025;-70
2020/12/07 03:13:06;;;;;;;7.20;4.45;;;5.00;99.90;;;;;;5024994;28;20022;-70
2020/12/07 03:15:33;;;;;;;7.35;4.40;;;5.00;99.90;;;;;;5027112;28;20064;-70
2020/12/07 03:18:01;;;;;;;7.72;4.28;;;5.00;99.90;;;;;;5027487;28;20105;-70
2020/12/07 03:20:27;;;;;;;7.03;4.60;;;5.10;99.90;;;;;;5028956;28;20029;-70
2020/12/07 03:22:55;;;;;;;7.45;5.10;;;5.10;99.90;;;;;;5025073;28;20025;-70
2020/12/07 03:25:24;;;;;;;7.85;5.35;;;5.10;99.90;;;;;;5024681;28;20477;-70
2020/12/07 03:27:50;;;;;;;8.02;5.47;;;5.10;99.90;;;;;;5024654;28;20041;-70
2020/12/07 03:30:18;;;;;;;8.63;6.00;;;5.00;99.90;;;;;;5027884;28;20065;-70
2020/12/07 03:32:48;;;;;;;8.48;6.13;;;5.00;99.90;;;;;;5025999;28;20028;-70
2020/12/07 03:35:13;;;;;;;8.93;5.35;;;4.90;99.90;;;;;;5030418;28;20044;-70
2020/12/07 03:37:42;;;;;;;10.68;6.65;;;4.90;99.90;;;;;;5026607;28;20371;-70
2020/12/07 03:40:07;;;;;;;10.05;6.22;;;4.90;99.90;;;;;;5032264;28;20055;-70
2020/12/07 03:42:33;;;;;;;10.10;6.78;;;4.90;99.90;;;;;;5034533;28;20037;-70
2020/12/07 03:45:01;;;;;;;10.52;7.05;;;4.90;99.90;;;;;;5030147;28;20033;-70
2020/12/07 03:47:26;;;;;;;9.52;6.00;;;4.80;99.90;;;;;;5030988;28;20590;-70
2020/12/07 03:49:52;;;;;;;9.73;6.45;;;4.80;99.90;;;;;;5031271;28;20025;-70
2020/12/07 03:52:17;;;;;;;11.48;6.53;;;4.80;99.90;;;;;;5030594;28;20086;-70
2020/12/07 03:54:45;;;;;;;10.02;6.38;;;4.80;99.90;;;;;;5028351;28;20033;-70
2020/12/07 03:57:13;;;;;;;10.15;6.85;;;4.80;99.90;;;;;;5035626;28;20148;-70
2020/12/07 03:59:41;;;;;;;11.82;7.80;;;4.90;99.90;;;;;;5017504;28;20052;-70
2020/12/07 04:02:12;;;;;;;12.05;7.82;;;4.90;99.90;;;;;;5030237;28;20025;-70
2020/12/07 04:04:49;;;;;;;10.85;7.45;;;4.80;99.90;;;;;;5029642;28;20034;-70
2020/12/07 04:07:15;;;;;;;11.23;7.38;;;4.80;99.90;;;;;;5032933;28;20043;-71
2020/12/07 04:09:40;;;;;;;10.98;7.50;;;4.80;99.90;;;;;;5028599;28;20160;-70
2020/12/07 04:12:09;;;;;;;12.48;7.88;;;4.80;99.90;;;;;;5026223;28;20033;-70
2020/12/07 04:14:35;;;;;;;12.27;7.57;;;4.80;99.90;;;;;;5036265;28;20044;-70
2020/12/07 04:17:03;;;;;;;11.23;7.60;;;4.80;99.90;;;;;;5031494;28;20156;-70
2020/12/07 04:19:29;;;;;;;11.77;8.15;;;4.80;99.90;;;;;;5029561;28;20041;-70
2020/12/07 04:21:59;;;;;;;12.63;8.05;;;4.80;99.90;;;;;;5030077;28;20078;-70
2020/12/07 04:24:27;;;;;;;13.23;8.20;;;4.80;99.90;;;;;;5028852;28;20038;-70
2020/12/07 04:26:53;;;;;;;12.20;7.25;;;4.80;99.90;;;;;;5034325;28;20060;-70
2020/12/07 04:29:21;;;;;;;12.18;7.50;;;4.80;99.90;;;;;;5028750;28;20045;-70
2020/12/07 04:31:46;;;;;;;11.18;7.35;;;4.90;99.90;;;;;;5031020;28;20034;-70
2020/12/07 04:34:12;;;;;;;13.32;8.13;;;4.90;99.90;;;;;;5028400;28;20596;-70
2020/12/07 04:36:38;;;;;;;13.48;7.82;;;4.90;99.90;;;;;;5031665;28;20025;-70
2020/12/07 04:39:05;;;;;;;12.75;8.68;;;4.90;99.90;;;;;;5032441;28;20402;-70
2020/12/07 04:41:31;;;;;;;12.77;8.20;;;4.90;99.90;;;;;;5015272;28;20043;-70
2020/12/07 04:43:57;;;;;;;11.45;7.78;;;4.90;99.90;;;;;;5028019;28;20085;-70
2020/12/07 04:46:23;;;;;;;12.63;8.18;;;5.00;99.90;;;;;;5026828;28;20084;-70
2020/12/07 04:48:51;;;;;;;13.13;7.70;;;4.90;99.90;;;;;;5032009;28;20098;-70
2020/12/07 04:51:19;;;;;;;12.40;8.40;;;5.00;99.90;;;;;;5011803;28;20022;-70
2020/12/07 04:53:45;;;;;;;12.93;7.90;;;5.00;99.90;;;;;;5045346;28;20025;-70
2020/12/07 04:56:11;;;;;;;11.60;7.50;;;5.00;99.90;;;;;;5014844;28;20474;-70
2020/12/07 04:58:36;;;;;;;10.77;7.45;;;5.00;99.90;;;;;;5028392;28;20041;-70
2020/12/07 05:01:02;;;;;;;12.85;8.57;;;5.00;99.90;;;;;;5033530;28;20026;-70
2020/12/07 05:03:32;;;;;;;12.18;7.70;;;5.00;99.90;;;;;;5029773;28;20120;-70
2020/12/07 05:05:59;;;;;;;12.25;7.82;;;5.00;99.90;;;;;;5028110;28;20033;-70
2020/12/07 05:08:28;;;;;;;12.40;8.38;;;5.00;99.90;;;;;;5028543;28;20056;-70
2020/12/07 05:11:00;;;;;;;12.32;8.15;;;5.00;99.90;;;;;;5011247;28;20061;-70
2020/12/07 05:15:55;;;;;;;12.85;7.90;;;5.00;99.90;;;;;;5028522;28;20080;-70
2020/12/07 05:18:21;;;;;;;13.23;8.35;;;5.00;99.90;;;;;;5016582;28;20140;-70
2020/12/07 05:20:49;;;;;;;12.85;8.70;;;5.00;99.90;;;;;;5028764;28;20648;-70
2020/12/07 05:23:20;;;;;;;13.90;8.82;;;5.00;99.90;;;;;;5031291;28;20117;-70
2020/12/07 05:25:47;;;;;;;13.02;8.40;;;5.00;99.90;;;;;;5028500;28;20033;-70
2020/12/07 05:28:16;;;;;;;12.90;8.40;;;5.00;99.90;;;;;;5029569;28;20040;-70
2020/12/07 05:30:46;;;;;;;15.52;9.25;;;5.00;99.90;;;;;;5019442;28;20033;-70
2020/12/07 05:33:12;;;;;;;13.25;8.30;;;5.00;99.90;;;;;;5030898;28;20088;-70
2020/12/07 05:35:41;;;;;;;14.93;8.70;;;4.90;99.90;;;;;;5017231;28;20026;-70
2020/12/07 05:38:09;;;;;;;16.58;10.18;;;5.00;99.90;;;;;;5030027;28;20028;-70
2020/12/07 05:40:37;;;;;;;15.05;8.95;;;5.00;99.90;;;;;;5027380;28;20072;-70
2020/12/07 05:43:02;;;;;;;14.98;8.45;;;5.00;99.90;;;;;;5027540;28;20044;-70
2020/12/07 05:45:32;;;;;;;14.95;8.93;;;5.00;99.90;;;;;;5024765;28;20108;-70
2020/12/07 05:47:59;;;;;;;13.43;9.05;;;5.00;99.90;;;;;;5029412;28;20332;-70
2020/12/07 05:50:24;;;;;;;15.60;8.93;;;5.00;99.90;;;;;;5026586;28;20032;-70
2020/12/07 05:53:02;;;;;;;13.75;9.07;;;5.00;99.90;;;;;;5014990;28;20477;-70
2020/12/07 05:55:30;;;;;;;16.00;8.70;;;5.10;99.90;;;;;;5016941;28;20105;-70
2020/12/07 05:57:56;;;;;;;19.80;11.63;;;5.10;99.90;;;;;;5015562;28;20815;-70
2020/12/07 06:00:24;;;;;;;20.80;11.73;;;5.10;99.90;;;;;;5027719;28;20029;-70
2020/12/07 06:02:54;;;;;;;17.35;10.98;;;5.00;99.90;;;;;;5035221;28;20037;-70
2020/12/07 06:05:23;;;;;;;15.70;9.63;;;5.00;99.90;;;;;;5026864;28;20059;-70
2020/12/07 06:08:15;;;;;;;16.90;10.60;;;5.00;99.90;;;;;;4995380;28;20501;-70
2020/12/07 06:10:45;;;;;;;18.45;11.35;;;5.00;99.90;;;;;;5030287;28;20439;-70
2020/12/07 06:13:18;;;;;;;19.73;12.40;;;5.00;99.90;;;;;;5028297;28;20068;-70
2020/12/07 06:15:47;;;;;;;18.48;11.20;;;5.00;99.90;;;;;;5025518;28;20052;-70
2020/12/07 06:18:29;;;;;;;16.38;10.10;;;5.00;99.90;;;;;;5029201;28;20032;-70
2020/12/07 06:21:01;;;;;;;13.73;8.32;;;5.00;99.90;;;;;;5027522;28;20527;-70
2020/12/07 06:23:46;;;;;;;16.83;10.82;;;5.00;99.90;;;;;;5029000;28;20017;-70
2020/12/07 06:26:16;;;;;;;20.45;11.77;;;5.00;99.90;;;;;;5025134;28;20025;-70
2020/12/07 06:28:45;;;;;;;20.95;12.10;;;5.00;99.90;;;;;;5026113;28;20032;-70
2020/12/07 06:31:15;;;;;;;19.05;11.70;;;5.00;99.90;;;;;;5026483;28;20048;-70
2020/12/07 06:33:49;;;;;;;17.65;11.23;;;5.00;99.90;;;;;;5017340;28;20022;-70
2020/12/07 06:36:44;;;;;;;18.48;12.25;;;5.00;99.90;;;;;;5028145;28;20060;-70
2020/12/07 06:39:10;;;;;;;18.48;12.05;;;5.00;99.90;;;;;;5024996;28;20045;-70
2020/12/07 06:41:48;;;;;;;19.25;11.10;;;5.00;99.90;;;;;;5043249;28;20061;-70
2020/12/07 06:44:20;;;;;;;19.13;11.90;;;5.10;99.90;;;;;;5027037;28;20029;-70
2020/12/07 06:52:15;;;;;;;21.13;11.90;;;5.10;99.90;;;;;;5029949;28;20097;-70
2020/12/07 06:57:51;;;;;;;20.38;12.75;;;5.10;99.90;;;;;;5026927;28;20060;-70
2020/12/07 07:00:26;;;;;;;18.67;11.57;;;5.10;99.90;;;;;;5027919;28;20064;-70
2020/12/07 07:02:57;;;;;;;20.17;11.73;;;5.00;99.90;;;;;;5029550;28;20454;-70
2020/12/07 07:05:29;;;;;;;21.38;13.23;;;5.00;99.90;;;;;;5043718;28;20471;-70
2020/12/07 07:07:55;;;;;;;22.15;13.20;;;5.00;99.90;;;;;;5018106;28;20029;-70
2020/12/07 07:10:20;;;;;;;19.48;12.10;;;5.00;99.90;;;;;;5030433;28;20369;-70
2020/12/07 07:12:49;;;;;;;17.85;11.68;;;4.90;99.90;;;;;;5033565;28;20478;-70
2020/12/07 07:15:15;;;;;;;17.73;11.23;;;5.00;99.90;;;;;;5035772;28;20053;-70
2020/12/07 07:17:47;;;;;;;18.65;11.55;;;5.00;99.90;;;;;;5032463;28;20038;-70
2020/12/07 07:20:15;;;;;;;19.38;12.13;;;5.00;99.90;;;;;;5028958;28;20148;-70
2020/12/07 07:22:46;;;;;;;17.27;11.00;;;5.00;99.90;;;;;;5030327;28;20104;-70
2020/12/07 07:30:27;;;;;;;17.35;10.93;;;5.00;99.90;;;;;;5033059;28;20076;-70
2020/12/07 07:32:54;;;;;;;16.42;10.55;;;5.00;99.90;;;;;;5029290;28;20057;-70
2020/12/07 07:35:23;;;;;;;18.15;11.88;;;5.00;99.90;;;;;;5032201;28;20497;-70
2020/12/07 07:37:52;;;;;;;16.15;10.60;;;5.00;99.90;;;;;;5029925;28;20104;-70
2020/12/07 07:40:20;;;;;;;17.52;11.35;;;5.10;99.90;;;;;;5030060;28;20048;-70
2020/12/07 07:42:49;;;;;;;22.17;12.80;;;5.10;99.90;;;;;;5026520;28;20040;-70
2020/12/07 07:45:17;;;;;;;16.35;10.10;;;5.00;99.90;;;;;;5031239;28;20203;-70
2020/12/07 07:47:54;;;;;;;15.02;10.15;;;5.00;99.90;;;;;;5047242;28;20033;-70
2020/12/07 07:57:56;;;;;;;14.98;10.32;;;5.00;99.90;;;;;;5028603;28;20179;-71
2020/12/07 08:08:11;;;;;;;15.80;10.00;;;5.20;99.90;;;;;;5032811;28;20035;-70
2020/12/07 08:17:52;;;;;;;17.63;10.82;;;5.30;99.90;;;;;;5030051;28;20036;-69
2020/12/07 08:20:26;;;;;;;13.82;9.98;;;5.30;99.90;;;;;;5031570;28;20055;-70
2020/12/07 08:22:56;;;;;;;15.80;10.48;;;5.30;99.90;;;;;;5031237;28;20026;-70
2020/12/07 08:25:51;;;;;;;20.90;10.38;;;5.30;99.90;;;;;;5030373;28;20099;-70
2020/12/07 08:28:27;;;;;;;19.33;12.43;;;5.40;99.90;;;;;;5048932;28;20017;-70
2020/12/07 08:31:02;;;;;;;19.55;11.80;;;5.30;99.90;;;;;;5030363;28;20041;-70
2020/12/07 08:33:31;;;;;;;19.60;12.18;;;5.30;99.90;;;;;;5029229;28;20030;-70
2020/12/07 08:35:57;;;;;;;19.00;12.63;;;5.40;99.90;;;;;;5019974;28;20572;-70
2020/12/07 08:38:33;;;;;;;17.90;11.88;;;5.40;99.90;;;;;;5028125;28;20125;-70
2020/12/07 08:41:17;;;;;;;23.40;14.98;;;5.30;99.90;;;;;;5027794;28;20120;-70
2020/12/07 08:43:55;;;;;;;24.25;14.63;;;5.40;99.90;;;;;;5030851;28;20039;-70
2020/12/07 08:46:24;;;;;;;24.85;14.88;;;5.30;99.90;;;;;;5035191;28;20026;-70
2020/12/07 08:48:51;;;;;;;19.65;12.90;;;5.30;99.90;;;;;;5025366;28;20021;-69
2020/12/07 08:51:22;;;;;;;22.70;14.18;;;5.30;99.90;;;;;;5030467;28;20025;-69
2020/12/07 08:53:48;;;;;;;21.03;14.27;;;5.30;99.90;;;;;;5029826;28;20721;-70
2020/12/07 08:56:14;;;;;;;29.25;14.70;;;5.30;99.90;;;;;;5030785;28;20029;-69
2020/12/07 08:58:42;;;;;;;21.42;13.23;;;5.20;99.90;;;;;;5029911;28;20045;-69
2020/12/07 09:01:12;;;;;;;19.55;12.77;;;5.30;99.90;;;;;;5030888;28;20489;-70
2020/12/07 09:03:43;;;;;;;20.08;13.30;;;5.30;99.90;;;;;;5029634;28;20093;-70
2020/12/07 09:06:11;;;;;;;30.80;17.77;;;5.30;99.90;;;;;;5029697;28;20122;-69
2020/12/07 09:08:40;;;;;;;23.55;14.43;;;5.30;99.90;;;;;;5030327;28;20030;-70
2020/12/07 09:11:07;;;;;;;24.35;14.40;;;5.30;99.90;;;;;;5027279;28;20028;-70
2020/12/07 09:13:34;;;;;;;18.52;12.10;;;5.30;99.90;;;;;;5032221;28;20087;-70
2020/12/07 09:16:00;;;;;;;19.13;12.20;;;5.30;99.90;;;;;;5028630;28;20144;-70
2020/12/07 09:18:28;;;;;;;19.67;12.45;;;5.30;99.90;;;;;;5024471;28;20113;-70
2020/12/07 09:20:54;;;;;;;16.85;11.48;;;5.40;99.90;;;;;;5030421;28;20021;-70
2020/12/07 09:23:20;;;;;;;19.63;11.93;;;5.30;99.90;;;;;;5047750;28;20083;-69
2020/12/07 09:25:46;;;;;;;16.52;10.82;;;5.40;99.90;;;;;;5027502;28;20034;-70
2020/12/07 09:28:12;;;;;;;17.65;11.20;;;5.40;99.90;;;;;;5032666;28;20426;-70
2020/12/07 09:30:38;;;;;;;18.20;11.13;;;5.40;99.90;;;;;;5030885;28;20099;-70
2020/12/07 09:33:05;;;;;;;15.82;10.30;;;5.40;99.90;;;;;;5028760;28;20041;-70
2020/12/07 09:35:31;;;;;;;15.35;10.35;;;5.40;99.90;;;;;;5025770;28;20033;-70
2020/12/07 09:37:57;;;;;;;16.27;10.77;;;5.40;99.90;;;;;;5026466;28;20631;-70
2020/12/07 09:40:25;;;;;;;17.60;10.55;;;5.50;99.90;;;;;;5032209;28;20108;-70
2020/12/07 09:42:51;;;;;;;15.45;10.25;;;5.50;99.90;;;;;;5018786;28;20088;-70
2020/12/07 09:45:18;;;;;;;17.27;11.02;;;5.50;99.90;;;;;;5014080;28;20033;-70
2020/12/07 09:47:44;;;;;;;15.32;10.07;;;5.50;99.90;;;;;;5058498;28;20033;-70
2020/12/07 09:50:12;;;;;;;15.93;10.60;;;5.50;99.90;;;;;;5026832;28;20091;-69
2020/12/07 09:52:40;;;;;;;17.50;10.80;;;5.60;99.90;;;;;;5033400;28;20028;-70
2020/12/07 09:55:06;;;;;;;18.48;10.73;;;5.50;99.90;;;;;;5027465;28;20036;-70
2020/12/07 09:57:33;;;;;;;15.68;10.45;;;5.50;99.90;;;;;;5028066;28;20033;-70
2020/12/07 09:59:59;;;;;;;16.05;10.40;;;5.50;99.90;;;;;;5028717;28;20071;-70
2020/12/07 10:02:25;;;;;;;19.92;11.38;;;5.50;99.90;;;;;;5026204;28;20036;-70
2020/12/07 10:04:55;;;;;;;14.93;10.13;;;5.50;99.90;;;;;;5030128;28;20082;-70
2020/12/07 10:07:21;;;;;;;15.63;9.30;;;5.60;99.90;;;;;;5028103;28;20537;-70
2020/12/07 10:09:47;;;;;;;14.52;9.85;;;5.60;99.90;;;;;;5028361;28;20029;-70
2020/12/07 10:12:13;;;;;;;14.77;9.75;;;5.60;99.90;;;;;;5029478;28;20022;-70
2020/12/07 10:14:39;;;;;;;14.52;9.77;;;5.60;99.90;;;;;;5027459;28;20036;-70
2020/12/07 10:17:05;;;;;;;14.93;10.02;;;5.70;99.90;;;;;;5029730;28;20111;-70
2020/12/07 10:19:31;;;;;;;20.52;11.10;;;5.70;99.90;;;;;;5028681;28;20064;-70
2020/12/07 10:21:57;;;;;;;16.08;10.63;;;5.70;99.90;;;;;;5025477;28;20045;-70
2020/12/07 10:24:23;;;;;;;15.90;10.40;;;5.70;99.90;;;;;;5009235;28;20067;-70
2020/12/07 10:26:49;;;;;;;17.20;10.55;;;5.70;99.90;;;;;;5027085;28;20064;-70
2020/12/07 10:29:17;;;;;;;14.85;10.10;;;5.70;99.90;;;;;;5013195;28;21929;-70
2020/12/07 10:31:43;;;;;;;15.18;9.93;;;5.70;99.90;;;;;;5025435;28;20036;-70
2020/12/07 10:34:09;;;;;;;14.60;9.73;;;5.70;99.90;;;;;;5059725;28;20022;-70
2020/12/07 10:36:35;;;;;;;13.35;9.65;;;5.70;99.90;;;;;;5030777;28;20020;-70
2020/12/07 10:39:01;;;;;;;15.32;9.07;;;5.70;99.90;;;;;;5028560;28;20107;-70
2020/12/07 10:41:27;;;;;;;16.70;10.75;;;5.70;99.90;;;;;;5026948;28;20446;-70
2020/12/07 10:43:53;;;;;;;17.13;10.15;;;5.80;99.90;;;;;;5041063;28;20092;-70
2020/12/07 10:46:19;;;;;;;13.77;9.23;;;5.80;99.90;;;;;;5028773;28;20034;-70
2020/12/07 10:48:45;;;;;;;18.10;10.93;;;5.80;99.90;;;;;;5033859;28;20114;-70
2020/12/07 10:51:12;;;;;;;13.77;9.32;;;5.80;99.90;;;;;;5021412;28;20018;-70
2020/12/07 10:53:40;;;;;;;15.95;10.60;;;5.80;99.90;;;;;;5031568;28;20108;-70
2020/12/07 10:56:07;;;;;;;14.23;9.35;;;5.80;99.90;;;;;;5014610;28;20036;-70
2020/12/07 10:58:36;;;;;;;14.40;9.48;;;5.80;99.90;;;;;;5032553;28;20026;-70
2020/12/07 11:01:02;;;;;;;16.23;10.02;;;5.80;99.90;;;;;;5037175;28;20313;-70
2020/12/07 11:03:27;;;;;;;13.70;8.95;;;5.80;99.90;;;;;;5015756;28;20740;-70
2020/12/07 11:05:53;;;;;;;18.05;11.05;;;5.90;99.90;;;;;;5037285;28;20048;-70
2020/12/07 11:08:35;;;;;;;17.05;10.50;;;5.90;99.90;;;;;;5030400;28;20026;-70
2020/12/07 11:11:01;;;;;;;13.88;9.57;;;5.90;99.90;;;;;;5030200;28;20029;-70
2020/12/07 11:13:31;;;;;;;14.55;9.95;;;5.90;99.90;;;;;;5037196;28;20117;-69
2020/12/07 11:16:01;;;;;;;15.02;10.15;;;5.90;99.90;;;;;;5034157;28;20080;-70
2020/12/07 11:18:31;;;;;;;16.90;10.18;;;5.90;99.90;;;;;;5030102;28;20112;-70
2020/12/07 11:20:57;;;;;;;16.15;9.65;;;5.90;99.90;;;;;;5016998;28;20025;-70
2020/12/07 11:23:23;;;;;;;14.05;9.93;;;6.00;99.90;;;;;;5033430;28;20107;-70
2020/12/07 11:25:51;;;;;;;15.77;9.63;;;5.90;99.90;;;;;;5031850;28;20033;-70
2020/12/07 11:28:19;;;;;;;16.88;10.30;;;6.00;99.90;;;;;;5033232;28;20029;-70
2020/12/07 11:30:45;;;;;;;15.02;9.82;;;6.00;99.90;;;;;;5030454;28;20045;-70
2020/12/07 11:33:10;;;;;;;15.43;9.98;;;6.00;99.90;;;;;;5032898;28;20030;-70
2020/12/07 11:35:36;;;;;;;13.70;9.55;;;5.90;99.90;;;;;;5030071;28;20040;-70
2020/12/07 11:38:08;;;;;;;16.23;10.10;;;6.00;99.90;;;;;;5032228;28;20028;-70
2020/12/07 11:43:18;;;;;;;14.43;9.55;;;5.90;99.90;;;;;;5031382;28;20402;-70
2020/12/07 11:45:44;;;;;;;14.27;10.23;;;5.90;99.90;;;;;;5029399;28;20030;-70
2020/12/07 11:48:10;;;;;;;16.50;11.40;;;5.90;99.90;;;;;;5029023;28;20040;-70
2020/12/07 11:50:36;;;;;;;14.88;10.43;;;5.90;99.90;;;;;;5030051;28;20108;-70
2020/12/07 11:53:04;;;;;;;16.58;9.75;;;5.90;99.90;;;;;;5028793;28;20025;-70
2020/12/07 11:55:32;;;;;;;15.77;10.07;;;5.90;99.90;;;;;;4684171;28;10000603;-71
2020/12/07 11:58:00;;;;;;;19.02;11.40;;;6.00;99.90;;;;;;5026132;28;20128;-71
2020/12/07 12:00:26;;;;;;;17.67;11.00;;;5.90;99.90;;;;;;5028178;28;20450;-71
2020/12/07 12:02:52;;;;;;;18.15;10.80;;;5.90;99.90;;;;;;5026341;28;20030;-71
2020/12/07 12:05:17;;;;;;;17.83;11.55;;;5.90;99.90;;;;;;5026282;28;20341;-70
2020/12/07 12:07:48;;;;;;;15.73;10.38;;;5.90;99.90;;;;;;5010490;28;20037;-70
2020/12/07 12:10:16;;;;;;;16.80;11.55;;;5.90;99.90;;;;;;5025797;28;20040;-70
2020/12/07 12:12:41;;;;;;;17.17;10.85;;;5.90;99.90;;;;;;5026728;28;20033;-70
2020/12/07 12:15:07;;;;;;;18.10;11.75;;;5.90;99.90;;;;;;5031592;28;20040;-70
2020/12/07 12:17:36;;;;;;;17.52;11.77;;;6.00;99.90;;;;;;5027338;28;20022;-70
2020/12/07 12:20:02;;;;;;;19.00;11.80;;;5.90;99.90;;;;;;5015030;28;20305;-70
2020/12/07 12:22:33;;;;;;;18.45;11.50;;;5.90;99.90;;;;;;5026384;28;20347;-70
2020/12/07 12:24:58;;;;;;;18.02;10.85;;;5.90;99.90;;;;;;5030514;28;20876;-71
2020/12/07 12:27:24;;;;;;;17.92;11.07;;;5.90;99.90;;;;;;5027720;28;20034;-70
2020/12/07 12:29:50;;;;;;;15.48;10.10;;;5.90;99.90;;;;;;5029836;28;20049;-72
2020/12/07 12:32:16;;;;;;;16.70;10.45;;;5.90;99.90;;;;;;5027649;28;20100;-70
2020/12/07 12:34:42;;;;;;;17.10;10.65;;;5.90;99.90;;;;;;4683644;28;10000224;-71
2020/12/07 12:37:07;;;;;;;17.13;10.43;;;5.90;99.90;;;;;;5027977;28;20857;-70
2020/12/07 12:39:36;;;;;;;20.55;11.48;;;5.90;99.90;;;;;;5025874;28;20037;-72
2020/12/07 12:42:02;;;;;;;19.75;12.13;;;5.90;99.90;;;;;;5025888;28;20148;-71
2020/12/07 12:44:27;;;;;;;20.17;12.05;;;5.90;99.90;;;;;;5025471;28;20101;-70
2020/12/07 12:46:53;;;;;;;22.30;13.15;;;5.90;99.90;;;;;;5032980;28;20021;-70
2020/12/07 12:49:21;;;;;;;24.33;14.82;;;5.90;99.90;;;;;;5025929;28;20037;-71
2020/12/07 12:51:47;;;;;;;26.25;15.95;;;6.00;99.90;;;;;;5026316;28;20043;-71
2020/12/07 12:54:14;;;;;;;25.88;15.13;;;6.00;99.90;;;;;;5022683;28;20037;-71
2020/12/07 12:56:42;;;;;;;29.60;17.33;;;6.00;99.90;;;;;;5028645;28;20123;-70
2020/12/07 12:59:08;;;;;;;25.45;15.68;;;5.90;99.90;;;;;;5020373;28;20778;-70
2020/12/07 13:01:39;;;;;;;27.35;17.08;;;5.90;99.90;;;;;;5031483;28;20128;-70
2020/12/07 13:04:07;;;;;;;30.40;17.67;;;5.90;99.90;;;;;;5028214;28;20065;-70
2020/12/07 13:06:38;;;;;;;32.10;17.90;;;5.90;99.90;;;;;;5032333;28;20048;-71
2020/12/07 13:09:04;;;;;;;33.30;18.10;;;5.80;99.90;;;;;;5028833;28;20041;-71
2020/12/07 13:11:35;;;;;;;26.77;16.00;;;5.80;99.90;;;;;;5027942;28;20040;-70
2020/12/07 13:14:01;;;;;;;28.92;17.92;;;5.80;99.90;;;;;;5032012;28;20114;-70
2020/12/07 13:16:35;;;;;;;29.48;16.38;;;5.80;99.90;;;;;;5029586;28;20030;-70
2020/12/07 13:19:00;;;;;;;34.22;19.60;;;5.80;99.90;;;;;;5034955;28;20099;-70
2020/12/07 13:21:32;;;;;;;33.72;18.65;;;5.80;99.90;;;;;;5031960;28;20107;-71
2020/12/07 13:24:28;;;;;;;29.77;18.17;;;5.80;99.90;;;;;;5032135;28;20034;-71
2020/12/07 13:27:46;;;;;;;30.80;17.92;;;5.80;99.90;;;;;;5029891;28;20058;-70
2020/12/07 13:29:40;;;;;;;35.05;19.42;;;5.80;99.90;;;;;;5022870;28;20041;-71